Station: Jervois  

  Atmospheric Gas Attenuation - ITU Rec 676-11   ----------------- dB/100km -----------------
Date Time Temp RH % AH g/m3 Dew Point Wind Direction Speed kph Gust kph Barometer mB Rainfall Since 9am 24GHz 47GHz 76GHz 122GHz 134GHz 241GHz
04/09 21:50 23.6 36 7.66 7.7 11 13 1017.2 0 17.2 22.1 32.1 84.1 76.5 262.8
04/09 21:40 23.5 37 7.82 8 9 13 1017.2 0 17.5 22.3 32.7 85.7 78.4 269.5
04/09 21:30 23.5 37 7.82 8 11 13 1017 0 17.5 22.3 32.7 85.6 78.4 269.4
04/09 21:20 23.4 37 7.78 7.9 9 13 1017.1 0 17.4 22.3 32.6 85.4 78.0 268.2
04/09 21:10 23.7 36 7.7 7.8 9 11 1017 0 17.2 22.1 32.2 84.3 76.8 264.0
04/09 21:00 23.9 36 7.79 7.9 9 11 1016.9 0 17.4 22.2 32.5 84.9 77.6 266.9
04/09 20:50 24 35 7.61 7.6 9 11 1016.9 0 17.0 21.9 31.8 83.2 75.5 259.5
04/09 20:40 23.8 36 7.74 7.8 11 13 1016.9 0 17.3 22.1 32.3 84.6 77.2 265.3
04/09 20:30 23.8 36 7.74 7.8 9 11 1016.7 0 17.3 22.1 32.3 84.6 77.2 265.2
04/09 20:20 24.4 35 7.79 8 11 13 1016.7 0 17.4 22.0 32.3 84.4 77.1 265.2
04/09 20:10 24.9 34 7.78 8 13 15 1016.6 0 17.4 21.9 32.0 83.8 76.5 263.2
04/09 20:00 25 34 7.83 8.1 13 15 1016.3 0 17.5 21.9 32.1 84.1 77.0 264.8
04/09 19:50 24.5 35 7.83 8 13 15 1016.3 0 17.5 22.0 32.3 84.6 77.5 266.4
04/09 19:40 24.3 35 7.74 7.9 11 13 1016.1 0 17.3 22.0 32.1 84.0 76.6 263.5
04/09 19:30 24.5 34 7.61 7.6 9 11 1015.9 0 17.0 21.7 31.6 82.6 75.0 257.7
04/09 19:20 25.2 33 7.68 7.8 11 11 1015.8 0 17.1 21.7 31.5 82.5 75.1 258.2
04/09 19:10 25.7 32 7.66 7.8 9 11 1015.7 0 17.1 21.5 31.3 81.9 74.4 255.9
04/09 19:00 26.3 31 7.67 7.8 9 11 1015.5 0 17.1 21.4 31.1 81.3 74.0 254.4
04/09 18:50 26.7 30 7.59 7.7 9 11 1015.3 0 16.9 21.2 30.7 80.2 72.7 250.1
04/09 18:40 27.4 29 7.63 7.8 9 13 1015.2 0 16.9 21.1 30.5 79.9 72.5 249.5
04/09 18:30 27.8 28 7.53 7.6 9 11 1015 0 16.7 20.8 30.1 78.6 71.1 244.5
04/09 18:20 28.6 26 7.31 7.2 9 11 1014.9 0 16.2 20.4 29.1 76.0 68.1 234.1
04/09 18:09 29.5 25 7.38 7.4 9 9 1014.8 0 16.3 20.3 29.0 75.8 68.1 234.1
04/09 18:00 30.1 24 7.32 7.3 11 17 1014.7 0 16.2 20.1 28.6 74.8 67.0 230.3
04/09 17:49 30.6 23 7.21 7.1 13 15 1014.8 0 16.0 19.8 28.1 73.4 65.5 225.0
04/09 17:39 31.3 23 7.48 7.7 9 11 1014.7 0 16.5 20.0 28.7 75.0 67.7 232.7
04/09 17:30 30.8 22 6.97 6.6 13 20 1014.6 0 15.5 19.5 27.3 71.3 62.9 216.0
04/09 17:19 30.9 22 7 6.7 17 20 1014.6 0 15.5 19.5 27.4 71.4 63.2 216.8
04/09 17:10 31.1 21 6.76 6.2 13 20 1014.6 0 15.0 19.2 26.6 69.4 60.6 208.0
04/09 17:00 31.5 21 6.9 6.5 11 17 1014.4 0 15.3 19.3 26.9 70.1 61.7 211.8
04/09 16:49 32.1 20 6.79 6.3 15 19 1014.5 0 15.0 19.0 26.4 68.8 60.2 206.6
04/09 16:40 32.1 20 6.79 6.3 11 19 1014.6 0 15.0 19.0 26.4 68.8 60.2 206.6
04/09 16:30 32 20 6.75 6.2 15 22 1014.4 0 15.0 19.0 26.3 68.5 59.9 205.4
04/09 16:20 31.7 21 6.98 6.7 17 22 1014.5 0 15.4 19.3 27.0 70.6 62.4 214.1
04/09 16:10 32 21 7.09 7 15 20 1014.5 0 15.7 19.4 27.3 71.2 63.2 217.1
04/09 16:00 31.7 21 6.98 6.7 15 20 1014.5 0 15.4 19.3 27.0 70.6 62.4 214.1
04/09 15:50 31.9 20 6.72 6.2 13 19 1014.6 0 14.9 19.0 26.2 68.4 59.7 204.7
04/09 15:40 31.9 21 7.05 6.9 15 22 1014.6 0 15.6 19.4 27.2 71.0 62.9 216.0
04/09 15:30 31.9 20 6.72 6.2 19 26 1014.6 0 14.9 19.0 26.2 68.4 59.7 204.7
04/09 15:20 32.4 21 7.24 7.3 17 26 1014.7 0 15.9 19.5 27.6 72.1 64.4 221.3
04/09 15:10 32 20 6.75 6.2 19 30 1014.8 0 15.0 19.0 26.3 68.6 59.9 205.5
04/09 14:59 32.2 21 7.17 7.1 7 7 1014.8 0 15.8 19.5 27.5 71.7 63.9 219.4
04/09 14:50 32.6 21 7.32 7.4 20 24 1014.9 0 16.1 19.6 27.8 72.6 65.0 223.6
04/09 14:39 32.2 21 7.17 7.1 15 20 1015 0 15.8 19.5 27.5 71.7 63.9 219.5
04/09 14:30 31.9 22 7.39 7.5 13 20 1015 0 16.3 19.8 28.2 73.8 66.3 227.9
04/09 14:20 31.8 22 7.35 7.5 13 20 1013.1 0 16.2 19.7 28.1 73.4 65.9 226.4
04/09 14:10 31.7 21 6.98 6.7 19 22 1015.2 0 15.4 19.3 27.1 70.7 62.4 214.2
04/09 14:00 31.6 22 7.27 7.3 17 24 1015.3 0 16.0 19.7 28.0 73.1 65.3 224.6
04/09 13:50 31.7 21 6.98 6.7 20 30 1013.1 0 15.4 19.3 27.0 70.5 62.3 213.8
04/09 13:40 31.6 22 7.27 7.3 17 22 1015.5 0 16.0 19.7 28.0 73.1 65.4 224.6
04/09 13:30 31.8 21 7.02 6.8 17 28 1015.6 0 15.5 19.4 27.2 70.9 62.7 215.4
04/09 13:20 31.8 20 6.68 6.1 15 19 1015.7 0 14.8 19.0 26.2 68.2 59.4 203.7
04/09 13:10 31.8 20 6.68 6.1 15 24 1013.1 0 14.8 18.9 26.1 68.0 59.3 203.3
04/09 13:00 32 20 6.75 6.2 17 26 1016 0 15.0 19.0 26.3 68.7 60.0 205.7
04/09 12:50 31.8 20 6.68 6.1 11 20 1016.2 0 14.8 19.0 26.2 68.3 59.4 203.8
04/09 12:40 31.9 20 6.72 6.2 11 19 1016.5 0 14.9 19.0 26.3 68.5 59.8 205.0
04/09 12:30 32.1 20 6.79 6.3 13 22 1016.6 0 15.0 19.1 26.4 68.9 60.3 206.9
04/09 12:20 32 21 7.09 7 11 20 1016.9 0 15.7 19.5 27.4 71.4 63.3 217.6
04/09 12:10 31.7 21 6.98 6.7 13 28 1017.1 0 15.4 19.4 27.1 70.8 62.5 214.6
04/09 12:00 31.6 22 7.27 7.3 13 17 1017.3 0 16.0 19.8 28.0 73.2 65.5 225.0
04/09 11:49 32 22 7.43 7.6 11 13 1017.6 0 16.3 19.9 28.4 74.2 66.8 229.6
04/09 11:40 31.8 22 7.35 7.5 15 30 1017.8 0 16.2 19.8 28.2 73.8 66.1 227.3
04/09 11:30 32.6 22 7.67 8.1 15 24 1017.8 0 16.8 20.1 28.9 75.6 68.7 236.4
04/09 11:20 32.5 22 7.63 8 11 22 1018.2 0 16.7 20.1 28.9 75.4 68.4 235.3
04/09 11:10 31.4 23 7.52 7.8 13 20 1018.3 0 16.6 20.2 28.9 75.5 68.2 234.5
04/09 11:00 32.4 21 7.24 7.3 11 20 1018.4 0 15.9 19.6 27.7 72.4 64.6 222.0
04/09 10:50 32.3 23 7.89 8.5 9 20 1018.6 0 17.3 20.4 29.7 77.8 71.2 245.2
04/09 10:40 31.8 23 7.68 8.1 9 19 1018.8 0 16.9 20.3 29.3 76.5 69.5 239.2
04/09 10:30 31 24 7.68 8.1 9 15 1018.8 0 16.9 20.5 29.5 77.3 70.2 241.5
04/09 10:20 31.3 25 8.13 8.9 7 11 1019 0 17.8 21.0 30.8 80.7 74.5 256.9
04/09 10:10 30.3 26 8.01 8.7 9 15 1019.1 0 17.6 21.0 30.8 80.7 74.2 255.6
04/09 10:00 29.8 27 8.1 8.8 11 15 1019 0 17.8 21.3 31.3 81.9 75.6 260.4
04/09 09:50 29.2 28 8.13 8.8 13 17 1019.2 0 17.9 21.4 31.6 82.8 76.5 263.4
04/09 09:40 28.7 29 8.2 8.9 13 17 1019.2 0 18.1 21.7 32.0 83.9 77.7 267.6
04/09 09:30 28.4 30 8.34 9.2 13 19 1019.1 0 18.4 21.9 32.6 85.4 79.5 273.9
04/09 09:20 27.7 31 8.29 9 13 19 1019.2 0 18.3 22.0 32.7 85.7 79.6 274.3
04/09 09:10 27.4 32 8.42 9.3 15 20 1019.3 0 18.6 22.3 33.3 87.2 81.4 280.3
04/09 09:00 26.8 34 8.65 9.6 13 19 1019.1 0 19.1 22.7 34.3 89.9 84.5 291.3
04/09 08:50 25.7 35 8.38 9.1 13 19 1019.1 0 18.6 22.6 33.8 88.6 82.6 284.6
04/09 08:40 25.1 36 8.33 9 15 20 1019 0 18.5 22.7 33.9 88.8 82.7 284.7
04/09 08:30 24.3 38 8.41 9.1 13 17 1018.8 0 18.7 23.0 34.5 90.4 84.4 290.6
04/09 08:20 23.1 40 8.27 8.8 15 19 1018.8 0 18.5 23.1 34.5 90.4 84.0 289.2
04/09 08:10 22.4 42 8.34 8.9 13 19 1013.1 0 18.6 23.2 34.8 91.3 85.2 293.2
04/09 08:00 21.6 43 8.15 8.5 13 17 1018.6 0 18.3 23.3 34.7 90.9 84.2 289.6
04/09 07:50 20.6 45 8.05 8.3 13 20 1018.5 0 18.1 23.4 34.8 91.1 84.1 289.0
04/09 07:40 19.7 46 7.81 7.8 13 20 1018.5 0 17.6 23.3 34.3 89.8 82.1 282.2
04/09 07:30 19.2 47 7.75 7.6 13 17 1018.4 0 17.5 23.3 34.3 89.7 81.9 281.4
04/09 07:20 18.6 48 7.64 7.4 13 17 1018.3 0 17.3 23.3 34.1 89.3 81.2 278.9
04/09 07:09 17.9 50 7.63 7.3 13 15 1018.3 0 17.3 23.5 34.4 90.0 81.8 280.9
04/09 07:00 17.6 50 7.5 7.1 13 19 1018.2 0 17.1 23.3 34.0 89.1 80.6 276.4
04/09 06:50 17.4 50 7.41 6.9 15 19 1018.2 0 16.9 23.3 33.8 88.4 79.7 273.3
04/09 06:40 17.2 50 7.32 6.7 15 19 1018.1 0 16.7 23.2 33.5 87.7 78.8 270.1
04/09 06:30 17.1 50 7.28 6.6 15 19 1018 0 16.6 23.1 33.4 87.4 78.4 268.7
04/09 06:20 17 51 7.38 6.8 15 19 1017.9 0 16.8 23.3 33.8 88.5 79.7 273.3
04/09 06:10 17 50 7.23 6.5 15 20 1017.8 0 16.5 23.1 33.3 87.0 77.9 266.9
04/09 06:00 17 50 7.23 6.5 17 20 1017.6 0 16.5 23.1 33.3 87.0 77.8 266.8
04/09 05:50 17 50 7.23 6.5 15 19 1017.6 0 16.5 23.1 33.3 87.0 77.8 266.8
04/09 05:40 16.8 50 7.15 6.3 13 17 1017.5 0 16.4 23.0 33.1 86.4 77.1 264.1
04/09 05:30 17.2 49 7.18 6.4 13 17 1017.3 0 16.4 22.9 33.0 86.3 77.0 264.0
04/09 05:20 17 49 7.09 6.2 15 19 1017.3 0 16.2 22.8 32.8 85.6 76.1 260.9

Last Refresh: 04-Sep-2026 22:06:46

Bureau of Meteorology